createdAt,value
2022-11-28T00:02:43.903Z,42.88
2022-11-28T00:05:48.778Z,36.00
2022-11-28T00:08:54.457Z,41.00
2022-11-28T00:11:59.487Z,31.92
2022-11-28T00:15:06.123Z,30.48
2022-11-28T00:18:11.412Z,29.02
2022-11-28T00:21:17.159Z,22.38
2022-11-28T00:24:22.285Z,18.90
2022-11-28T00:27:27.273Z,21.13
2022-11-28T00:30:32.225Z,24.52
2022-11-28T00:33:37.551Z,17.95
2022-11-28T00:36:47.599Z,20.08
2022-11-28T00:39:52.735Z,21.75
2022-11-28T00:42:57.795Z,25.40
2022-11-28T00:46:03.706Z,27.77
2022-11-28T00:49:09.065Z,27.13
2022-11-28T00:52:14.198Z,24.13
2022-11-28T00:55:19.096Z,27.20
2022-11-28T00:58:23.943Z,24.75
2022-11-28T01:01:38.517Z,22.20
2022-11-28T01:04:43.794Z,19.35
2022-11-28T01:07:49.023Z,21.38
2022-11-28T01:10:54.135Z,20.33
2022-11-28T01:14:00.972Z,18.05
2022-11-28T01:17:06.232Z,21.63
2022-11-28T01:20:12.101Z,16.70
2022-11-28T01:23:18.517Z,16.70
2022-11-28T01:26:26.939Z,23.00
2022-11-28T01:29:31.937Z,22.00
2022-11-28T01:32:36.820Z,20.63
2022-11-28T01:35:41.663Z,22.48
2022-11-28T01:38:47.231Z,19.67
2022-11-28T01:41:52.478Z,19.77
2022-11-28T01:45:16.161Z,16.48
2022-11-28T01:48:29.648Z,18.95
2022-11-28T01:51:35.347Z,18.55
2022-11-28T01:54:43.904Z,20.02
2022-11-28T01:57:49.227Z,21.15
2022-11-28T02:00:53.765Z,18.65
2022-11-28T02:03:59.050Z,20.08
2022-11-28T02:07:03.976Z,22.50
2022-11-28T02:10:12.283Z,19.95
2022-11-28T02:13:44.439Z,17.08
2022-11-28T02:17:18.017Z,16.25
2022-11-28T02:20:51.157Z,17.73
2022-11-28T02:24:36.516Z,17.77
2022-11-28T02:28:03.428Z,18.73
2022-11-28T02:31:54.841Z,17.98
2022-11-28T02:35:08.777Z,17.38
2022-11-28T02:38:39.164Z,17.55
2022-11-28T02:41:52.832Z,17.88
2022-11-28T02:45:27.827Z,15.20
2022-11-28T02:48:49.415Z,17.35
2022-11-28T02:52:03.448Z,17.63
2022-11-28T02:55:08.619Z,20.50
2022-11-28T02:58:13.726Z,17.33
2022-11-28T03:01:28.375Z,16.05
2022-11-28T03:05:00.671Z,14.90
2022-11-28T03:08:33.708Z,17.42
2022-11-28T03:12:19.004Z,16.10
2022-11-28T03:15:32.732Z,14.20
2022-11-28T03:19:25.584Z,17.95
2022-11-28T03:22:38.313Z,21.63
2022-11-28T03:26:10.552Z,14.95
2022-11-28T03:29:19.330Z,15.27
2022-11-28T03:32:28.575Z,15.70
2022-11-28T03:35:39.798Z,16.83
2022-11-28T03:38:49.821Z,14.18
2022-11-28T03:42:03.835Z,17.85
2022-11-28T03:45:31.998Z,16.17
2022-11-28T03:48:45.429Z,15.93
2022-11-28T03:51:56.756Z,13.90
2022-11-28T03:55:35.035Z,19.52
2022-11-28T03:59:10.808Z,14.13
2022-11-28T04:02:55.385Z,16.40
2022-11-28T04:06:07.443Z,13.82
2022-11-28T04:09:21.495Z,12.43
2022-11-28T04:12:35.496Z,20.65
2022-11-28T04:16:13.280Z,19.02
2022-11-28T04:19:29.220Z,20.92
2022-11-28T04:22:39.427Z,18.77
2022-11-28T04:26:02.034Z,20.92
2022-11-28T04:29:11.418Z,18.40
2022-11-28T04:32:19.088Z,16.25
2022-11-28T04:35:34.180Z,16.20
2022-11-28T04:38:40.890Z,19.77
2022-11-28T04:41:53.059Z,14.38
2022-11-28T04:45:13.826Z,14.77
2022-11-28T04:48:19.202Z,16.35
2022-11-28T04:51:50.063Z,12.80
2022-11-28T04:55:00.997Z,10.25
2022-11-28T04:58:34.436Z,15.95
2022-11-28T05:01:41.499Z,11.50
2022-11-28T05:04:47.420Z,9.45
2022-11-28T05:07:53.028Z,11.02
2022-11-28T05:10:58.142Z,17.70
2022-11-28T05:14:03.306Z,11.90
2022-11-28T05:17:09.668Z,15.13
2022-11-28T05:20:15.751Z,14.25
2022-11-28T05:23:20.735Z,14.82
2022-11-28T05:26:26.216Z,16.80
2022-11-28T05:29:31.343Z,18.85
2022-11-28T05:32:36.517Z,14.38
2022-11-28T05:35:41.285Z,18.25
2022-11-28T05:38:46.455Z,13.63
2022-11-28T05:41:51.711Z,14.90
2022-11-28T05:44:56.821Z,13.30
2022-11-28T05:48:01.753Z,13.73
2022-11-28T05:51:07.493Z,10.70
2022-11-28T05:54:12.268Z,15.32
2022-11-28T05:57:17.244Z,11.63
2022-11-28T06:00:22.872Z,17.27
2022-11-28T06:03:27.831Z,14.20
2022-11-28T06:06:35.039Z,12.43
2022-11-28T06:09:40.303Z,14.85
2022-11-28T06:12:45.064Z,11.63
2022-11-28T06:15:49.846Z,18.08
2022-11-28T06:18:57.547Z,16.88
2022-11-28T06:22:02.742Z,17.98
2022-11-28T06:25:07.829Z,14.88
2022-11-28T06:28:12.864Z,16.35
2022-11-28T06:31:28.538Z,17.45
2022-11-28T06:34:33.667Z,16.55
2022-11-28T06:37:38.497Z,15.35
2022-11-28T06:40:43.619Z,14.43
2022-11-28T06:43:49.528Z,15.73
2022-11-28T06:46:55.139Z,15.35
2022-11-28T06:49:59.932Z,14.25
2022-11-28T06:53:04.748Z,15.35
2022-11-28T06:56:14.098Z,14.15
2022-11-28T06:59:19.055Z,26.17
2022-11-28T07:02:25.206Z,81.18
2022-11-28T07:05:31.071Z,32.92
2022-11-28T07:08:36.722Z,17.65
2022-11-28T07:11:42.856Z,20.45
2022-11-28T07:14:47.918Z,16.60
2022-11-28T07:17:53.725Z,17.40
2022-11-28T07:20:58.638Z,17.02
2022-11-28T07:24:03.529Z,16.23
2022-11-28T07:27:08.367Z,17.73
2022-11-28T07:30:13.711Z,16.63
2022-11-28T07:33:18.845Z,16.77
2022-11-28T07:36:26.119Z,15.43
2022-11-28T07:39:31.168Z,16.25
2022-11-28T07:42:36.809Z,13.45
2022-11-28T07:45:59.518Z,14.35
2022-11-28T07:49:05.886Z,13.05
2022-11-28T07:52:10.639Z,15.95
2022-11-28T07:55:15.583Z,15.00
2022-11-28T07:58:22.091Z,15.50
2022-11-28T08:01:30.002Z,14.27
2022-11-28T08:04:34.958Z,20.33
2022-11-28T08:07:39.997Z,21.60
2022-11-28T08:10:45.740Z,21.48
2022-11-28T08:13:53.789Z,32.20
2022-11-28T08:17:01.642Z,28.15
2022-11-28T08:20:07.390Z,29.27
2022-11-28T08:23:12.327Z,28.48
2022-11-28T08:26:17.279Z,29.95
2022-11-28T08:29:22.415Z,25.55
2022-11-28T08:32:30.100Z,26.25
2022-11-28T08:35:35.061Z,25.70
2022-11-28T08:38:41.263Z,24.45
2022-11-28T08:41:46.481Z,24.42
2022-11-28T08:44:51.417Z,20.92
2022-11-28T08:47:56.226Z,20.15
2022-11-28T08:51:01.004Z,24.45
2022-11-28T08:54:06.042Z,20.65
2022-11-28T08:57:11.146Z,20.92
2022-11-28T09:00:17.077Z,24.05
2022-11-28T09:03:22.081Z,22.15
2022-11-28T09:06:26.768Z,23.17
2022-11-28T09:09:32.990Z,22.90
2022-11-28T09:12:37.713Z,21.63
2022-11-28T09:15:45.315Z,22.15
2022-11-28T09:18:51.140Z,23.35
2022-11-28T09:21:57.892Z,23.02
2022-11-28T09:25:03.219Z,22.40
2022-11-28T09:28:08.491Z,25.55
2022-11-28T09:31:15.135Z,26.33
2022-11-28T09:34:20.115Z,21.98
2022-11-28T09:37:24.950Z,16.95
2022-11-28T09:40:42.894Z,19.98
2022-11-28T09:43:53.491Z,21.20
2022-11-28T09:47:06.151Z,16.35
2022-11-28T09:50:28.493Z,22.63
2022-11-28T09:53:49.175Z,16.08
2022-11-28T09:56:54.221Z,27.88
2022-11-28T09:59:59.331Z,44.13
2022-11-28T10:03:36.174Z,19.17
2022-11-28T10:07:15.930Z,16.77
2022-11-28T10:10:36.549Z,13.52
2022-11-28T10:14:26.613Z,11.02
2022-11-28T10:18:03.142Z,13.65
2022-11-28T10:21:42.316Z,13.50
2022-11-28T10:24:55.513Z,12.93
2022-11-28T10:28:01.139Z,12.00
2022-11-28T10:31:11.156Z,12.95
2022-11-28T10:34:28.529Z,12.20
2022-11-28T10:37:36.872Z,14.30
2022-11-28T10:40:52.667Z,14.55
2022-11-28T10:44:29.008Z,9.95
2022-11-28T10:48:07.396Z,10.18
2022-11-28T10:51:38.667Z,9.20
2022-11-28T10:54:48.874Z,12.57
2022-11-28T10:58:18.593Z,51.97
2022-11-28T11:01:23.835Z,11.15
2022-11-28T11:04:31.704Z,7.28
2022-11-28T11:07:36.852Z,14.60
2022-11-28T11:10:51.091Z,12.85
2022-11-28T11:14:01.609Z,10.73
2022-11-28T11:17:07.121Z,9.35
2022-11-28T11:20:29.290Z,8.70
2022-11-28T11:23:38.262Z,15.40
2022-11-28T11:26:46.340Z,6.25
2022-11-28T11:29:52.091Z,5.70
2022-11-28T11:32:59.891Z,5.93
2022-11-28T11:36:18.954Z,6.70
2022-11-28T11:39:25.591Z,6.10
2022-11-28T11:42:33.382Z,5.20
2022-11-28T11:45:38.733Z,7.18
2022-11-28T11:48:50.750Z,6.93
2022-11-28T11:51:58.219Z,8.10
2022-11-28T11:55:18.120Z,6.78
2022-11-28T11:58:47.064Z,5.43
2022-11-28T12:01:57.665Z,5.75
2022-11-28T12:05:17.150Z,7.15
2022-11-28T12:08:52.951Z,7.20
2022-11-28T12:12:13.687Z,6.60
2022-11-28T12:15:44.964Z,6.05
2022-11-28T12:19:18.887Z,8.88
2022-11-28T12:22:40.990Z,9.45
2022-11-28T12:25:56.180Z,6.57
2022-11-28T12:32:54.616Z,7.45
2022-11-28T12:36:17.617Z,7.32
2022-11-28T12:40:10.710Z,7.13
2022-11-28T12:43:37.081Z,5.70
2022-11-28T12:47:08.021Z,6.15
2022-11-28T12:50:22.617Z,8.23
2022-11-28T12:53:55.126Z,7.05
2022-11-28T12:57:42.797Z,7.80
2022-11-28T13:01:34.384Z,8.55
2022-11-28T13:05:21.864Z,6.90
2022-11-28T13:08:35.687Z,5.85
2022-11-28T13:12:12.064Z,6.18
2022-11-28T13:15:52.006Z,6.20
2022-11-28T13:19:26.656Z,7.80
2022-11-28T13:23:20.777Z,6.32
2022-11-28T13:26:58.789Z,7.30
2022-11-28T13:30:22.828Z,7.85
2022-11-28T13:33:56.552Z,7.53
2022-11-28T13:41:18.070Z,11.23
2022-11-28T13:45:07.335Z,8.25
2022-11-28T13:48:57.452Z,10.25
2022-11-28T13:52:17.450Z,7.70
2022-11-28T13:55:40.793Z,9.23
2022-11-28T13:59:00.724Z,8.80
2022-11-28T14:02:22.573Z,7.40
2022-11-28T14:05:34.557Z,8.45
2022-11-28T14:08:42.283Z,10.93
2022-11-28T14:12:07.833Z,9.93
2022-11-28T14:15:37.214Z,9.55
2022-11-28T14:19:38.492Z,10.73
2022-11-28T14:22:56.392Z,8.93
2022-11-28T14:26:01.553Z,10.25
2022-11-28T14:29:34.004Z,9.48
2022-11-28T14:32:41.853Z,11.75
2022-11-28T14:35:54.523Z,7.75
2022-11-28T14:39:15.833Z,6.82
2022-11-28T14:42:58.869Z,8.13
2022-11-28T14:45:50.966Z,9.40
2022-11-28T14:48:59.352Z,8.20
2022-11-28T14:52:39.085Z,8.38
2022-11-28T14:55:46.104Z,11.45
2022-11-28T14:58:55.192Z,10.07
2022-11-28T15:02:13.781Z,11.98
2022-11-28T15:05:49.943Z,10.38
2022-11-28T15:09:11.797Z,14.48
2022-11-28T15:12:30.966Z,14.20
2022-11-28T15:15:36.108Z,10.13
2022-11-28T15:18:48.995Z,10.00
2022-11-28T15:21:55.812Z,15.27
2022-11-28T15:25:00.666Z,13.70
2022-11-28T15:28:15.099Z,12.65
2022-11-28T15:31:22.737Z,12.95
2022-11-28T15:34:35.769Z,56.33
2022-11-28T15:37:54.632Z,78.50
2022-11-28T15:41:00.811Z,92.97
2022-11-28T15:44:06.304Z,98.13
2022-11-28T15:47:19.798Z,23.38
2022-11-28T15:50:30.562Z,14.55
2022-11-28T15:53:42.257Z,18.58
2022-11-28T15:56:57.469Z,18.90
2022-11-28T16:00:05.103Z,13.52
2022-11-28T16:03:26.404Z,14.75
2022-11-28T16:06:35.305Z,13.77
2022-11-28T16:09:51.398Z,13.13
2022-11-28T16:13:10.384Z,12.20
2022-11-28T16:16:19.620Z,14.15
2022-11-28T16:19:34.261Z,14.40
2022-11-28T16:22:39.351Z,11.55
2022-11-28T16:25:44.334Z,19.05
2022-11-28T16:29:07.251Z,16.80
2022-11-28T16:32:38.071Z,33.20
2022-11-28T16:35:43.215Z,38.97
2022-11-28T16:38:50.598Z,30.73
2022-11-28T16:42:12.147Z,37.33
2022-11-28T16:45:21.924Z,65.50
2022-11-28T16:48:30.992Z,116.25
2022-11-28T16:51:39.034Z,86.18
2022-11-28T16:54:44.579Z,97.43
2022-11-28T16:58:14.304Z,109.07
2022-11-28T17:01:21.519Z,91.63
2022-11-28T17:04:31.771Z,81.88
2022-11-28T17:07:36.915Z,74.18
2022-11-28T17:10:42.239Z,78.20
2022-11-28T17:13:47.659Z,67.20
2022-11-28T17:16:52.952Z,64.38
2022-11-28T17:19:58.304Z,63.05
2022-11-28T17:23:04.392Z,62.75
2022-11-28T17:26:10.735Z,63.33
2022-11-28T17:29:16.759Z,60.17
2022-11-28T17:32:22.126Z,61.05
2022-11-28T17:35:30.430Z,91.65
2022-11-28T17:38:36.502Z,80.95
2022-11-28T17:41:42.285Z,60.15
2022-11-28T17:44:47.418Z,59.03
2022-11-28T17:47:52.887Z,46.17
2022-11-28T17:50:59.359Z,52.72
2022-11-28T17:54:05.542Z,37.17
2022-11-28T17:57:10.865Z,40.28
2022-11-28T18:00:17.180Z,35.85
2022-11-28T18:03:23.556Z,28.33
2022-11-28T18:06:36.250Z,36.38
2022-11-28T18:09:41.733Z,42.80
2022-11-28T18:12:47.311Z,49.33
2022-11-28T18:15:54.097Z,52.70
2022-11-28T18:18:59.826Z,52.50
2022-11-28T18:22:07.639Z,65.63
2022-11-28T18:25:13.049Z,161.27
2022-11-28T18:28:19.248Z,51.65
2022-11-28T18:31:28.809Z,50.65
2022-11-28T18:34:34.050Z,55.67
2022-11-28T18:37:39.377Z,47.55
2022-11-28T18:40:44.379Z,44.22
2022-11-28T18:44:01.279Z,61.38
2022-11-28T18:47:06.407Z,136.23
2022-11-28T18:50:11.474Z,103.53
2022-11-28T18:53:16.824Z,55.83
2022-11-28T18:56:23.072Z,95.22
2022-11-28T18:59:28.586Z,44.65
2022-11-28T19:02:34.348Z,44.92
2022-11-28T19:05:42.335Z,36.95
2022-11-28T19:08:48.800Z,54.85
2022-11-28T19:11:55.373Z,45.20
2022-11-28T19:15:02.674Z,32.67
2022-11-28T19:18:08.470Z,29.83
2022-11-28T19:21:16.905Z,35.22
2022-11-28T19:24:22.123Z,324.83
2022-11-28T19:27:29.917Z,80.00
2022-11-28T19:30:35.181Z,27.08
2022-11-28T19:33:42.770Z,31.70
2022-11-28T19:36:51.912Z,63.58
2022-11-28T19:40:02.155Z,51.60
2022-11-28T19:43:07.784Z,58.28
2022-11-28T19:46:14.221Z,51.88
2022-11-28T19:49:22.711Z,93.88
2022-11-28T19:52:28.336Z,93.63
2022-11-28T19:55:34.832Z,34.65
2022-11-28T19:58:40.084Z,37.67
2022-11-28T20:01:48.163Z,53.40
2022-11-28T20:04:53.668Z,38.50
2022-11-28T20:07:58.970Z,31.95
2022-11-28T20:11:13.546Z,98.15
2022-11-28T20:14:19.887Z,53.45
2022-11-28T20:17:24.657Z,158.70
2022-11-28T20:20:29.699Z,38.42
2022-11-28T20:23:43.307Z,60.85
2022-11-28T20:26:50.495Z,68.25
2022-11-28T20:29:56.806Z,53.05
2022-11-28T20:33:01.885Z,89.20
2022-11-28T20:36:14.596Z,67.15
2022-11-28T20:39:20.008Z,54.72
2022-11-28T20:42:24.886Z,95.85
2022-11-28T20:45:29.864Z,86.95
2022-11-28T20:48:35.664Z,88.82
2022-11-28T20:51:41.090Z,62.83
2022-11-28T20:54:46.113Z,44.38
2022-11-28T20:57:50.876Z,31.77
2022-11-28T21:00:56.350Z,28.23
2022-11-28T21:04:03.594Z,25.45
2022-11-28T21:07:09.605Z,23.40
2022-11-28T21:10:15.818Z,28.45
2022-11-28T21:13:22.645Z,22.33
2022-11-28T21:16:31.322Z,22.00
2022-11-28T21:19:36.147Z,20.58
2022-11-28T21:22:41.183Z,17.73
2022-11-28T21:25:46.110Z,17.35
2022-11-28T21:28:54.093Z,20.13
2022-11-28T21:31:58.862Z,22.55
2022-11-28T21:35:04.683Z,25.23
2022-11-28T21:38:13.050Z,29.40
2022-11-28T21:41:18.773Z,24.52
2022-11-28T21:44:23.890Z,31.67
2022-11-28T21:47:28.975Z,21.88
2022-11-28T21:50:33.967Z,28.13
2022-11-28T21:53:39.032Z,25.27
2022-11-28T21:56:43.973Z,23.20
2022-11-28T21:59:49.108Z,27.48
2022-11-28T22:02:58.225Z,20.13
2022-11-28T22:06:23.927Z,19.90
2022-11-28T22:09:29.833Z,31.90
2022-11-28T22:12:39.258Z,33.63
2022-11-28T22:15:44.574Z,35.60
2022-11-28T22:18:50.609Z,35.13
2022-11-28T22:21:56.151Z,24.40
2022-11-28T22:25:02.163Z,26.15
2022-11-28T22:28:06.836Z,19.00
2022-11-28T22:31:17.315Z,21.52
2022-11-28T22:34:22.620Z,19.65
2022-11-28T22:37:27.370Z,29.38
2022-11-28T22:40:32.253Z,15.55
2022-11-28T22:43:37.722Z,14.32
2022-11-28T22:46:42.877Z,14.38
2022-11-28T22:49:48.205Z,12.40
2022-11-28T22:52:52.907Z,15.18
2022-11-28T22:56:04.496Z,21.42
2022-11-28T22:59:15.258Z,17.63
2022-11-28T23:02:20.348Z,14.48
2022-11-28T23:05:25.637Z,15.13
2022-11-28T23:08:31.336Z,16.05
2022-11-28T23:11:37.881Z,17.70
2022-11-28T23:14:43.436Z,15.77
2022-11-28T23:17:48.796Z,13.38
2022-11-28T23:20:56.171Z,19.48
2022-11-28T23:24:01.205Z,13.63
2022-11-28T23:27:06.183Z,15.45
2022-11-28T23:30:11.886Z,16.88
2022-11-28T23:33:17.154Z,15.05
2022-11-28T23:36:26.998Z,11.88
2022-11-28T23:39:31.750Z,12.48
2022-11-28T23:42:44.445Z,15.05
2022-11-28T23:45:49.694Z,12.85
2022-11-28T23:48:54.319Z,16.10
2022-11-28T23:51:59.194Z,10.10
2022-11-28T23:55:04.608Z,15.55
2022-11-28T23:58:09.620Z,15.57
